sensor_id;sensor_type;location;lat;lon;timestamp;pressure;altitude;pressure_sealevel;temperature;humidity
11487;BME280;10510;47.942;9.442;2023-02-19T00:01:08;95179.19;;;7.69;100.00
11487;BME280;10510;47.942;9.442;2023-02-19T00:03:09;95174.78;;;7.70;100.00
11487;BME280;10510;47.942;9.442;2023-02-19T00:05:09;95176.56;;;7.69;100.00
11487;BME280;10510;47.942;9.442;2023-02-19T00:07:09;95175.59;;;7.70;100.00
11487;BME280;10510;47.942;9.442;2023-02-19T00:09:11;95170.41;;;7.70;100.00
11487;BME280;10510;47.942;9.442;2023-02-19T00:11:15;95173.00;;;7.70;100.00
11487;BME280;10510;47.942;9.442;2023-02-19T00:13:16;95174.66;;;7.71;100.00
11487;BME280;10510;47.942;9.442;2023-02-19T00:15:16;95173.84;;;7.71;100.00
11487;BME280;10510;47.942;9.442;2023-02-19T00:17:16;95177.25;;;7.71;100.00
11487;BME280;10510;47.942;9.442;2023-02-19T00:19:18;95175.59;;;7.70;100.00
11487;BME280;10510;47.942;9.442;2023-02-19T00:21:19;95176.56;;;7.69;100.00
11487;BME280;10510;47.942;9.442;2023-02-19T00:23:19;95175.75;;;7.69;100.00
11487;BME280;10510;47.942;9.442;2023-02-19T00:25:20;95169.88;;;7.67;100.00
11487;BME280;10510;47.942;9.442;2023-02-19T00:27:20;95171.84;;;7.65;100.00
11487;BME280;10510;47.942;9.442;2023-02-19T00:29:20;95162.56;;;7.62;100.00
11487;BME280;10510;47.942;9.442;2023-02-19T00:33:22;95162.69;;;7.61;100.00
11487;BME280;10510;47.942;9.442;2023-02-19T00:35:23;95158.31;;;7.61;100.00
11487;BME280;10510;47.942;9.442;2023-02-19T00:37:23;95146.13;;;7.62;100.00
11487;BME280;10510;47.942;9.442;2023-02-19T00:39:23;95142.69;;;7.61;100.00
11487;BME280;10510;47.942;9.442;2023-02-19T00:41:24;95151.34;;;7.62;100.00
11487;BME280;10510;47.942;9.442;2023-02-19T00:43:25;95151.47;;;7.60;100.00
11487;BME280;10510;47.942;9.442;2023-02-19T00:45:25;95144.66;;;7.59;100.00
11487;BME280;10510;47.942;9.442;2023-02-19T00:47:25;95150.66;;;7.60;100.00
11487;BME280;10510;47.942;9.442;2023-02-19T00:49:25;95147.25;;;7.59;100.00
11487;BME280;10510;47.942;9.442;2023-02-19T00:51:31;95147.56;;;7.56;100.00
11487;BME280;10510;47.942;9.442;2023-02-19T00:53:32;95151.13;;;7.55;100.00
11487;BME280;10510;47.942;9.442;2023-02-19T00:55:32;95147.69;;;7.55;100.00
11487;BME280;10510;47.942;9.442;2023-02-19T00:57:32;95149.63;;;7.53;100.00
11487;BME280;10510;47.942;9.442;2023-02-19T00:59:33;95145.56;;;7.50;100.00
11487;BME280;10510;47.942;9.442;2023-02-19T01:01:33;95150.09;;;7.48;100.00
11487;BME280;10510;47.942;9.442;2023-02-19T01:03:34;95145.84;;;7.47;100.00
11487;BME280;10510;47.942;9.442;2023-02-19T01:05:34;95145.03;;;7.46;100.00
11487;BME280;10510;47.942;9.442;2023-02-19T01:07:35;95148.75;;;7.44;100.00
11487;BME280;10510;47.942;9.442;2023-02-19T01:09:36;95149.91;;;7.41;100.00
11487;BME280;10510;47.942;9.442;2023-02-19T01:11:37;95150.03;;;7.40;100.00
11487;BME280;10510;47.942;9.442;2023-02-19T01:13:37;95157.16;;;7.38;100.00
11487;BME280;10510;47.942;9.442;2023-02-19T01:15:38;95158.00;;;7.38;100.00
11487;BME280;10510;47.942;9.442;2023-02-19T01:17:38;95152.78;;;7.38;100.00
11487;BME280;10510;47.942;9.442;2023-02-19T01:19:39;95149.34;;;7.38;100.00
11487;BME280;10510;47.942;9.442;2023-02-19T01:21:39;95140.75;;;7.37;100.00
11487;BME280;10510;47.942;9.442;2023-02-19T01:23:40;95144.16;;;7.38;100.00
11487;BME280;10510;47.942;9.442;2023-02-19T01:25:41;95137.34;;;7.37;100.00
11487;BME280;10510;47.942;9.442;2023-02-19T01:27:41;95143.34;;;7.37;100.00
11487;BME280;10510;47.942;9.442;2023-02-19T01:29:42;95138.16;;;7.37;100.00
11487;BME280;10510;47.942;9.442;2023-02-19T01:31:42;95134.72;;;7.37;100.00
11487;BME280;10510;47.942;9.442;2023-02-19T01:33:47;95126.94;;;7.37;100.00
11487;BME280;10510;47.942;9.442;2023-02-19T01:35:47;95119.94;;;7.37;100.00
11487;BME280;10510;47.942;9.442;2023-02-19T01:37:48;95114.91;;;7.36;100.00
11487;BME280;10510;47.942;9.442;2023-02-19T01:39:48;95109.53;;;7.37;100.00
11487;BME280;10510;47.942;9.442;2023-02-19T01:41:48;95105.16;;;7.38;100.00
11487;BME280;10510;47.942;9.442;2023-02-19T01:44:00;95107.75;;;7.38;100.00
11487;BME280;10510;47.942;9.442;2023-02-19T01:46:01;95106.94;;;7.37;100.00
11487;BME280;10510;47.942;9.442;2023-02-19T01:50:10;95102.41;;;7.39;100.00
11487;BME280;10510;47.942;9.442;2023-02-19T01:52:22;95105.69;;;7.41;100.00
11487;BME280;10510;47.942;9.442;2023-02-19T01:54:27;95111.69;;;7.42;100.00
11487;BME280;10510;47.942;9.442;2023-02-19T01:56:29;95114.94;;;7.44;100.00
11487;BME280;10510;47.942;9.442;2023-02-19T01:58:33;95110.41;;;7.46;100.00
11487;BME280;10510;47.942;9.442;2023-02-19T02:00:35;95099.03;;;7.47;100.00
11487;BME280;10510;47.942;9.442;2023-02-19T02:02:37;95104.09;;;7.48;100.00
11487;BME280;10510;47.942;9.442;2023-02-19T02:04:39;95105.88;;;7.48;100.00
11487;BME280;10510;47.942;9.442;2023-02-19T02:06:47;95103.97;;;7.50;100.00
11487;BME280;10510;47.942;9.442;2023-02-19T02:08:54;95109.81;;;7.52;100.00
11487;BME280;10510;47.942;9.442;2023-02-19T02:11:13;95114.06;;;7.53;100.00
11487;BME280;10510;47.942;9.442;2023-02-19T02:13:13;95099.25;;;7.54;100.00
11487;BME280;10510;47.942;9.442;2023-02-19T02:15:15;95083.66;;;7.54;100.00
11487;BME280;10510;47.942;9.442;2023-02-19T02:17:25;95081.69;;;7.56;100.00
11487;BME280;10510;47.942;9.442;2023-02-19T02:26:54;95058.13;;;7.57;100.00
11487;BME280;10510;47.942;9.442;2023-02-19T02:31:16;95058.13;;;7.57;100.00
11487;BME280;10510;47.942;9.442;2023-02-19T02:35:25;95056.34;;;7.58;100.00
11487;BME280;10510;47.942;9.442;2023-02-19T02:37:29;95044.31;;;7.57;100.00
11487;BME280;10510;47.942;9.442;2023-02-19T02:39:32;95043.34;;;7.58;100.00
11487;BME280;10510;47.942;9.442;2023-02-19T02:41:33;95042.53;;;7.57;100.00
11487;BME280;10510;47.942;9.442;2023-02-19T02:43:33;95051.31;;;7.56;100.00
11487;BME280;10510;47.942;9.442;2023-02-19T02:45:33;95065.94;;;7.57;100.00
11487;BME280;10510;47.942;9.442;2023-02-19T02:47:38;95073.75;;;7.57;100.00
11487;BME280;10510;47.942;9.442;2023-02-19T02:49:40;95071.16;;;7.57;100.00
11487;BME280;10510;47.942;9.442;2023-02-19T02:52:01;95073.56;;;7.59;100.00
11487;BME280;10510;47.942;9.442;2023-02-19T02:54:32;95068.53;;;7.57;100.00
11487;BME280;10510;47.942;9.442;2023-02-19T02:56:53;95071.16;;;7.57;100.00
11487;BME280;10510;47.942;9.442;2023-02-19T02:58:55;95066.75;;;7.58;100.00
11487;BME280;10510;47.942;9.442;2023-02-19T03:01:01;95065.94;;;7.57;100.00
11487;BME280;10510;47.942;9.442;2023-02-19T03:03:24;95062.53;;;7.57;100.00
11487;BME280;10510;47.942;9.442;2023-02-19T03:05:27;95064.97;;;7.58;100.00
11487;BME280;10510;47.942;9.442;2023-02-19T03:08:12;95052.94;;;7.57;100.00
11487;BME280;10510;47.942;9.442;2023-02-19T03:10:32;95052.13;;;7.57;100.00
11487;BME280;10510;47.942;9.442;2023-02-19T03:12:34;95055.53;;;7.57;100.00
11487;BME280;10510;47.942;9.442;2023-02-19T03:15:00;95055.69;;;7.56;100.00
11487;BME280;10510;47.942;9.442;2023-02-19T03:17:25;95054.06;;;7.55;100.00
11487;BME280;10510;47.942;9.442;2023-02-19T03:19:59;95051.63;;;7.53;100.00
11487;BME280;10510;47.942;9.442;2023-02-19T03:22:15;95058.59;;;7.53;100.00
11487;BME280;10510;47.942;9.442;2023-02-19T03:24:23;95060.38;;;7.52;100.00
11487;BME280;10510;47.942;9.442;2023-02-19T03:26:44;95063.97;;;7.51;100.00
11487;BME280;10510;47.942;9.442;2023-02-19T03:28:53;95079.56;;;7.51;100.00
11487;BME280;10510;47.942;9.442;2023-02-19T03:31:18;95082.31;;;7.49;100.00
11487;BME280;10510;47.942;9.442;2023-02-19T03:33:23;95065.09;;;7.48;100.00
11487;BME280;10510;47.942;9.442;2023-02-19T03:35:29;95065.88;;;7.49;100.00
11487;BME280;10510;47.942;9.442;2023-02-19T03:37:44;95060.69;;;7.49;100.00
11487;BME280;10510;47.942;9.442;2023-02-19T03:39:45;95053.06;;;7.47;100.00
11487;BME280;10510;47.942;9.442;2023-02-19T03:42:01;95043.59;;;7.46;100.00
11487;BME280;10510;47.942;9.442;2023-02-19T03:46:32;95040.50;;;7.43;100.00
11487;BME280;10510;47.942;9.442;2023-02-19T03:48:38;95034.50;;;7.42;100.00
11487;BME280;10510;47.942;9.442;2023-02-19T03:50:43;95032.03;;;7.41;100.00
11487;BME280;10510;47.942;9.442;2023-02-19T03:52:53;95026.03;;;7.40;100.00
11487;BME280;10510;47.942;9.442;2023-02-19T03:55:16;95035.63;;;7.40;100.00
11487;BME280;10510;47.942;9.442;2023-02-19T03:57:24;95021.94;;;7.38;100.00
11487;BME280;10510;47.942;9.442;2023-02-19T03:59:51;95021.94;;;7.38;100.00
11487;BME280;10510;47.942;9.442;2023-02-19T04:02:23;95013.50;;;7.36;100.00
11487;BME280;10510;47.942;9.442;2023-02-19T04:04:27;95021.44;;;7.34;100.00
11487;BME280;10510;47.942;9.442;2023-02-19T04:06:31;95035.41;;;7.33;100.00
11487;BME280;10510;47.942;9.442;2023-02-19T04:08:34;95038.81;;;7.34;100.00
11487;BME280;10510;47.942;9.442;2023-02-19T04:10:37;95041.44;;;7.34;100.00
11487;BME280;10510;47.942;9.442;2023-02-19T04:12:41;95038.81;;;7.34;100.00
11487;BME280;10510;47.942;9.442;2023-02-19T04:14:49;95046.63;;;7.34;100.00
11487;BME280;10510;47.942;9.442;2023-02-19T04:17:00;95061.41;;;7.33;100.00
11487;BME280;10510;47.942;9.442;2023-02-19T04:19:05;95057.03;;;7.34;100.00
11487;BME280;10510;47.942;9.442;2023-02-19T04:21:07;95058.97;;;7.32;100.00
11487;BME280;10510;47.942;9.442;2023-02-19T04:23:09;95078.13;;;7.31;100.00
11487;BME280;10510;47.942;9.442;2023-02-19T04:25:10;95079.94;;;7.30;100.00
11487;BME280;10510;47.942;9.442;2023-02-19T04:27:11;95080.75;;;7.31;100.00
11487;BME280;10510;47.942;9.442;2023-02-19T04:29:11;95076.66;;;7.28;100.00
11487;BME280;10510;47.942;9.442;2023-02-19T04:31:11;95077.63;;;7.27;100.00
11487;BME280;10510;47.942;9.442;2023-02-19T04:33:12;95070.94;;;7.24;100.00
11487;BME280;10510;47.942;9.442;2023-02-19T04:35:12;95080.69;;;7.22;100.00
11487;BME280;10510;47.942;9.442;2023-02-19T04:37:12;95088.78;;;7.19;100.00
11487;BME280;10510;47.942;9.442;2023-02-19T04:39:13;95077.69;;;7.17;100.00
11487;BME280;10510;47.942;9.442;2023-02-19T04:41:13;95082.91;;;7.17;100.00
11487;BME280;10510;47.942;9.442;2023-02-19T04:43:13;95080.97;;;7.19;100.00
11487;BME280;10510;47.942;9.442;2023-02-19T04:45:13;95087.81;;;7.20;100.00
11487;BME280;10510;47.942;9.442;2023-02-19T04:47:14;95082.59;;;7.20;100.00
11487;BME280;10510;47.942;9.442;2023-02-19T04:49:16;95093.97;;;7.19;100.00
11487;BME280;10510;47.942;9.442;2023-02-19T04:51:17;95093.97;;;7.19;100.00
11487;BME280;10510;47.942;9.442;2023-02-19T04:53:17;95093.00;;;7.20;100.00
11487;BME280;10510;47.942;9.442;2023-02-19T04:55:17;95094.78;;;7.20;100.00
11487;BME280;10510;47.942;9.442;2023-02-19T04:57:17;95080.97;;;7.19;100.00
11487;BME280;10510;47.942;9.442;2023-02-19T04:59:18;95075.09;;;7.17;100.00
11487;BME280;10510;47.942;9.442;2023-02-19T05:01:18;95074.47;;;7.15;100.00
11487;BME280;10510;47.942;9.442;2023-02-19T05:03:18;95071.19;;;7.13;100.00
11487;BME280;10510;47.942;9.442;2023-02-19T05:05:18;95085.16;;;7.12;100.00
11487;BME280;10510;47.942;9.442;2023-02-19T05:07:19;95074.75;;;7.12;100.00
11487;BME280;10510;47.942;9.442;2023-02-19T05:09:19;95077.38;;;7.12;100.00
11487;BME280;10510;47.942;9.442;2023-02-19T05:11:19;95078.19;;;7.13;100.00
11487;BME280;10510;47.942;9.442;2023-02-19T05:13:20;95084.19;;;7.13;100.00
11487;BME280;10510;47.942;9.442;2023-02-19T05:15:20;95076.25;;;7.15;100.00
11487;BME280;10510;47.942;9.442;2023-02-19T05:17:20;95077.19;;;7.14;100.00
11487;BME280;10510;47.942;9.442;2023-02-19T05:19:20;95085.00;;;7.14;100.00
11487;BME280;10510;47.942;9.442;2023-02-19T05:21:21;95086.78;;;7.13;100.00
11487;BME280;10510;47.942;9.442;2023-02-19T05:23:21;95095.41;;;7.14;100.00
11487;BME280;10510;47.942;9.442;2023-02-19T05:25:21;95088.41;;;7.14;100.00
11487;BME280;10510;47.942;9.442;2023-02-19T05:27:21;95087.47;;;7.15;100.00
11487;BME280;10510;47.942;9.442;2023-02-19T05:29:22;95088.28;;;7.16;100.00
11487;BME280;10510;47.942;9.442;2023-02-19T05:31:22;95095.09;;;7.17;100.00
11487;BME280;10510;47.942;9.442;2023-02-19T05:33:24;95098.50;;;7.17;100.00
11487;BME280;10510;47.942;9.442;2023-02-19T05:35:25;95095.09;;;7.17;100.00
11487;BME280;10510;47.942;9.442;2023-02-19T05:37:26;95102.88;;;7.17;100.00
11487;BME280;10510;47.942;9.442;2023-02-19T05:39:26;95097.69;;;7.17;100.00
11487;BME280;10510;47.942;9.442;2023-02-19T05:41:28;95101.28;;;7.16;100.00
11487;BME280;10510;47.942;9.442;2023-02-19T05:43:29;95090.06;;;7.15;100.00
11487;BME280;10510;47.942;9.442;2023-02-19T05:45:29;95097.03;;;7.15;100.00
11487;BME280;10510;47.942;9.442;2023-02-19T05:47:30;95097.19;;;7.13;100.00
11487;BME280;10510;47.942;9.442;2023-02-19T05:49:30;95105.78;;;7.14;100.00
11487;BME280;10510;47.942;9.442;2023-02-19T05:51:31;95110.84;;;7.15;100.00
11487;BME280;10510;47.942;9.442;2023-02-19T05:53:31;95114.25;;;7.16;100.00
11487;BME280;10510;47.942;9.442;2023-02-19T05:55:35;95123.84;;;7.15;100.00
11487;BME280;10510;47.942;9.442;2023-02-19T05:57:46;95113.44;;;7.15;100.00
11487;BME280;10510;47.942;9.442;2023-02-19T05:59:46;95121.25;;;7.15;100.00
11487;BME280;10510;47.942;9.442;2023-02-19T06:01:48;95131.66;;;7.15;100.00
11487;BME280;10510;47.942;9.442;2023-02-19T06:03:48;95130.84;;;7.15;100.00
11487;BME280;10510;47.942;9.442;2023-02-19T06:05:48;95130.84;;;7.15;100.00
11487;BME280;10510;47.942;9.442;2023-02-19T06:07:49;95130.84;;;7.15;100.00
11487;BME280;10510;47.942;9.442;2023-02-19T06:09:49;95143.84;;;7.15;100.00
11487;BME280;10510;47.942;9.442;2023-02-19T06:11:50;95148.19;;;7.14;100.00
11487;BME280;10510;47.942;9.442;2023-02-19T06:13:50;95143.97;;;7.13;100.00
11487;BME280;10510;47.942;9.442;2023-02-19T06:15:50;95142.34;;;7.12;100.00
11487;BME280;10510;47.942;9.442;2023-02-19T06:17:51;95148.50;;;7.11;100.00
11487;BME280;10510;47.942;9.442;2023-02-19T06:19:51;95146.88;;;7.10;100.00
11487;BME280;10510;47.942;9.442;2023-02-19T06:21:51;95151.38;;;7.08;100.00
11487;BME280;10510;47.942;9.442;2023-02-19T06:23:51;95147.16;;;7.07;100.00
11487;BME280;10510;47.942;9.442;2023-02-19T06:25:52;95147.31;;;7.05;100.00
11487;BME280;10510;47.942;9.442;2023-02-19T06:27:52;95146.50;;;7.05;100.00
11487;BME280;10510;47.942;9.442;2023-02-19T06:29:52;95151.03;;;7.03;100.00
11487;BME280;10510;47.942;9.442;2023-02-19T06:31:52;95147.78;;;7.01;100.00
11487;BME280;10510;47.942;9.442;2023-02-19T06:33:53;95137.66;;;6.98;100.00
11487;BME280;10510;47.942;9.442;2023-02-19T06:35:57;95126.59;;;6.96;100.00
11487;BME280;10510;47.942;9.442;2023-02-19T06:37:57;95145.75;;;6.95;100.00
11487;BME280;10510;47.942;9.442;2023-02-19T06:39:57;95149.47;;;6.92;100.00
11487;BME280;10510;47.942;9.442;2023-02-19T06:41:57;95149.59;;;6.91;100.00
11487;BME280;10510;47.942;9.442;2023-02-19T06:43:58;95148.13;;;6.88;100.00
11487;BME280;10510;47.942;9.442;2023-02-19T06:45:59;95150.88;;;6.87;100.00
11487;BME280;10510;47.942;9.442;2023-02-19T06:48:00;95146.66;;;6.86;100.00
11487;BME280;10510;47.942;9.442;2023-02-19T06:50:00;95153.63;;;6.85;100.00
11487;BME280;10510;47.942;9.442;2023-02-19T06:52:00;95164.16;;;6.83;100.00
11487;BME280;10510;47.942;9.442;2023-02-19T06:54:02;95161.41;;;6.85;100.00
11487;BME280;10510;47.942;9.442;2023-02-19T06:56:05;95168.09;;;6.88;100.00
11487;BME280;10510;47.942;9.442;2023-02-19T06:58:06;95173.00;;;6.91;100.00
11487;BME280;10510;47.942;9.442;2023-02-19T07:00:07;95174.34;;;6.95;100.00
11487;BME280;10510;47.942;9.442;2023-02-19T07:02:10;95188.00;;;6.97;100.00
11487;BME280;10510;47.942;9.442;2023-02-19T07:04:11;95193.88;;;6.99;100.00
11487;BME280;10510;47.942;9.442;2023-02-19T07:06:11;95191.94;;;7.01;100.00
11487;BME280;10510;47.942;9.442;2023-02-19T07:08:12;95194.38;;;7.02;100.00
11487;BME280;10510;47.942;9.442;2023-02-19T07:10:12;95201.88;;;7.05;100.00
11487;BME280;10510;47.942;9.442;2023-02-19T07:12:12;95199.00;;;7.09;100.00
11487;BME280;10510;47.942;9.442;2023-02-19T07:14:15;95195.44;;;7.10;100.00
11487;BME280;10510;47.942;9.442;2023-02-19T07:16:15;95206.34;;;7.13;100.00
11487;BME280;10510;47.942;9.442;2023-02-19T07:18:17;95211.25;;;7.16;100.00
11487;BME280;10510;47.942;9.442;2023-02-19T07:20:17;95215.34;;;7.19;100.00
11487;BME280;10510;47.942;9.442;2023-02-19T07:22:17;95213.56;;;7.19;100.00
11487;BME280;10510;47.942;9.442;2023-02-19T07:24:17;95223.66;;;7.22;100.00
11487;BME280;10510;47.942;9.442;2023-02-19T07:26:21;95227.75;;;7.25;100.00
11487;BME280;10510;47.942;9.442;2023-02-19T07:28:21;95223.06;;;7.28;100.00
11487;BME280;10510;47.942;9.442;2023-02-19T07:30:21;95230.56;;;7.32;100.00
11487;BME280;10510;47.942;9.442;2023-02-19T07:32:22;95231.94;;;7.36;100.00
11487;BME280;10510;47.942;9.442;2023-02-19T07:34:22;95246.63;;;7.45;100.00
11487;BME280;10510;47.942;9.442;2023-02-19T07:36:23;95245.72;;;7.54;100.00
11487;BME280;10510;47.942;9.442;2023-02-19T07:38:24;95244.00;;;7.63;100.00
11487;BME280;10510;47.942;9.442;2023-02-19T07:40:25;95252.72;;;7.71;100.00
11487;BME280;10510;47.942;9.442;2023-02-19T07:42:25;95254.03;;;7.76;100.00
11487;BME280;10510;47.942;9.442;2023-02-19T07:44:25;95256.31;;;7.79;100.00
11487;BME280;10510;47.942;9.442;2023-02-19T07:46:26;95265.19;;;7.86;100.00
11487;BME280;10510;47.942;9.442;2023-02-19T07:48:26;95260.31;;;7.91;100.00
11487;BME280;10510;47.942;9.442;2023-02-19T07:50:26;95267.00;;;7.93;100.00
11487;BME280;10510;47.942;9.442;2023-02-19T07:52:27;95268.78;;;7.93;100.00
11487;BME280;10510;47.942;9.442;2023-02-19T07:54:27;95261.00;;;7.93;100.00
11487;BME280;10510;47.942;9.442;2023-02-19T07:56:27;95261.66;;;7.95;100.00
11487;BME280;10510;47.942;9.442;2023-02-19T07:58:28;95260.84;;;7.94;100.00
11487;BME280;10510;47.942;9.442;2023-02-19T08:00:29;95267.81;;;7.94;100.00
11487;BME280;10510;47.942;9.442;2023-02-19T08:02:29;95263.59;;;7.93;100.00
11487;BME280;10510;47.942;9.442;2023-02-19T08:04:48;95270.22;;;7.87;100.00
11487;BME280;10510;47.942;9.442;2023-02-19T08:06:48;95271.34;;;7.85;100.00
11487;BME280;10510;47.942;9.442;2023-02-19T08:08:48;95267.09;;;7.84;100.00
11487;BME280;10510;47.942;9.442;2023-02-19T08:10:49;95263.84;;;7.82;100.00
11487;BME280;10510;47.942;9.442;2023-02-19T08:13:13;95268.81;;;7.75;100.00
11487;BME280;10510;47.942;9.442;2023-02-19T08:15:21;95274.03;;;7.75;100.00
11487;BME280;10510;47.942;9.442;2023-02-19T08:17:22;95274.84;;;7.76;100.00
11487;BME280;10510;47.942;9.442;2023-02-19T08:19:22;95282.94;;;7.72;100.00
11487;BME280;10510;47.942;9.442;2023-02-19T08:21:23;95268.63;;;7.68;100.00
11487;BME280;10510;47.942;9.442;2023-02-19T08:23:24;95280.34;;;7.72;100.00
11487;BME280;10510;47.942;9.442;2023-02-19T08:25:25;95271.00;;;7.80;100.00
11487;BME280;10510;47.942;9.442;2023-02-19T08:27:25;95275.56;;;8.04;100.00
11487;BME280;10510;47.942;9.442;2023-02-19T08:29:25;95284.13;;;8.22;100.00
11487;BME280;10510;47.942;9.442;2023-02-19T08:31:26;95277.72;;;8.60;100.00
11487;BME280;10510;47.942;9.442;2023-02-19T08:33:26;95288.13;;;8.95;100.00
11487;BME280;10510;47.942;9.442;2023-02-19T08:35:27;95288.34;;;9.09;100.00
11487;BME280;10510;47.942;9.442;2023-02-19T08:37:27;95282.38;;;9.33;100.00
11487;BME280;10510;47.942;9.442;2023-02-19T08:39:27;95285.31;;;9.47;100.00
11487;BME280;10510;47.942;9.442;2023-02-19T08:41:28;95289.59;;;9.64;100.00
11487;BME280;10510;47.942;9.442;2023-02-19T08:43:28;95296.94;;;9.69;100.00
11487;BME280;10510;47.942;9.442;2023-02-19T08:45:29;95308.72;;;9.89;100.00
11487;BME280;10510;47.942;9.442;2023-02-19T08:47:29;95302.66;;;10.05;100.00
11487;BME280;10510;47.942;9.442;2023-02-19T08:49:29;95315.22;;;10.26;100.00
11487;BME280;10510;47.942;9.442;2023-02-19T08:51:30;95317.84;;;10.42;100.00
11487;BME280;10510;47.942;9.442;2023-02-19T08:53:31;95320.13;;;10.45;100.00
11487;BME280;10510;47.942;9.442;2023-02-19T08:55:32;95329.19;;;10.82;100.00
11487;BME280;10510;47.942;9.442;2023-02-19T08:57:35;95321.78;;;11.02;100.00
11487;BME280;10510;47.942;9.442;2023-02-19T08:59:36;95331.44;;;11.02;100.00
11487;BME280;10510;47.942;9.442;2023-02-19T09:01:37;95337.81;;;10.99;100.00
11487;BME280;10510;47.942;9.442;2023-02-19T09:03:37;95339.34;;;10.77;100.00
11487;BME280;10510;47.942;9.442;2023-02-19T09:05:38;95338.22;;;10.63;100.00
11487;BME280;10510;47.942;9.442;2023-02-19T09:07:39;95338.25;;;10.55;100.00
11487;BME280;10510;47.942;9.442;2023-02-19T09:09:39;95336.63;;;10.46;100.00
11487;BME280;10510;47.942;9.442;2023-02-19T09:11:40;95342.66;;;10.46;100.00
11487;BME280;10510;47.942;9.442;2023-02-19T09:13:41;95338.75;;;10.42;100.00
11487;BME280;10510;47.942;9.442;2023-02-19T09:15:41;95334.03;;;10.30;100.00
11487;BME280;10510;47.942;9.442;2023-02-19T09:17:41;95335.66;;;10.31;100.00
11487;BME280;10510;47.942;9.442;2023-02-19T09:19:42;95332.34;;;10.20;100.00
11487;BME280;10510;47.942;9.442;2023-02-19T09:21:42;95331.25;;;10.07;100.00
11487;BME280;10510;47.942;9.442;2023-02-19T09:23:42;95339.06;;;9.90;100.00
11487;BME280;10510;47.942;9.442;2023-02-19T09:25:42;95322.41;;;9.83;100.00
11487;BME280;10510;47.942;9.442;2023-02-19T09:27:43;95334.47;;;9.68;100.00
11487;BME280;10510;47.942;9.442;2023-02-19T09:29:43;95337.69;;;9.53;100.00
11487;BME280;10510;47.942;9.442;2023-02-19T09:31:44;95335.53;;;9.41;100.00
11487;BME280;10510;47.942;9.442;2023-02-19T09:33:46;95342.38;;;9.33;100.00
11487;BME280;10510;47.942;9.442;2023-02-19T09:35:47;95336.97;;;9.35;100.00
11487;BME280;10510;47.942;9.442;2023-02-19T09:37:47;95338.22;;;9.82;100.00
11487;BME280;10510;47.942;9.442;2023-02-19T09:39:47;95340.09;;;10.30;100.00
11487;BME280;10510;47.942;9.442;2023-02-19T09:41:51;95350.78;;;10.76;100.00
11487;BME280;10510;47.942;9.442;2023-02-19T09:43:52;95357.56;;;11.10;100.00
11487;BME280;10510;47.942;9.442;2023-02-19T09:46:00;95364.19;;;10.81;100.00
11487;BME280;10510;47.942;9.442;2023-02-19T09:48:02;95365.03;;;10.74;100.00
11487;BME280;10510;47.942;9.442;2023-02-19T09:50:08;95366.56;;;11.07;100.00
11487;BME280;10510;47.942;9.442;2023-02-19T09:54:29;95377.16;;;11.85;100.00
11487;BME280;10510;47.942;9.442;2023-02-19T09:56:31;95366.72;;;11.53;100.00
11487;BME280;10510;47.942;9.442;2023-02-19T09:58:33;95371.78;;;11.47;100.00
11487;BME280;10510;47.942;9.442;2023-02-19T10:00:35;95363.44;;;11.12;100.00
11487;BME280;10510;47.942;9.442;2023-02-19T10:02:36;95376.09;;;10.92;100.00
11487;BME280;10510;47.942;9.442;2023-02-19T10:04:40;95380.72;;;10.49;100.00
11487;BME280;10510;47.942;9.442;2023-02-19T10:06:40;95379.56;;;10.19;100.00
11487;BME280;10510;47.942;9.442;2023-02-19T10:08:44;95375.63;;;9.98;100.00
11487;BME280;10510;47.942;9.442;2023-02-19T10:10:44;95383.59;;;9.81;100.00
11487;BME280;10510;47.942;9.442;2023-02-19T10:12:47;95381.47;;;9.68;100.00
11487;BME280;10510;47.942;9.442;2023-02-19T10:14:52;95382.06;;;9.53;100.00
11487;BME280;10510;47.942;9.442;2023-02-19T10:16:56;95366.03;;;9.40;100.00
11487;BME280;10510;47.942;9.442;2023-02-19T10:18:58;95370.25;;;9.33;100.00
11487;BME280;10510;47.942;9.442;2023-02-19T10:20:59;95372.66;;;9.18;100.00
11487;BME280;10510;47.942;9.442;2023-02-19T10:23:02;95369.69;;;9.13;100.00
11487;BME280;10510;47.942;9.442;2023-02-19T10:25:03;95374.72;;;9.15;100.00
11487;BME280;10510;47.942;9.442;2023-02-19T10:27:09;95375.88;;;9.12;100.00
11487;BME280;10510;47.942;9.442;2023-02-19T10:29:10;95369.00;;;9.11;100.00
11487;BME280;10510;47.942;9.442;2023-02-19T10:31:19;95372.19;;;9.31;100.00
11487;BME280;10510;47.942;9.442;2023-02-19T10:33:20;95367.94;;;10.05;100.00
11487;BME280;10510;47.942;9.442;2023-02-19T10:35:21;95376.59;;;9.97;100.00
11487;BME280;10510;47.942;9.442;2023-02-19T10:37:21;95377.81;;;10.36;100.00
11487;BME280;10510;47.942;9.442;2023-02-19T10:41:32;95385.75;;;10.83;100.00
11487;BME280;10510;47.942;9.442;2023-02-19T10:43:37;95396.81;;;11.02;100.00
11487;BME280;10510;47.942;9.442;2023-02-19T10:45:46;95390.63;;;10.95;100.00
11487;BME280;10510;47.942;9.442;2023-02-19T10:47:48;95399.50;;;10.77;100.00
11487;BME280;10510;47.942;9.442;2023-02-19T10:49:50;95400.97;;;10.55;100.00
11487;BME280;10510;47.942;9.442;2023-02-19T10:51:53;95401.66;;;10.33;100.00
11487;BME280;10510;47.942;9.442;2023-02-19T10:54:17;95403.22;;;10.17;100.00
11487;BME280;10510;47.942;9.442;2023-02-19T10:56:26;95401.59;;;10.24;100.00
11487;BME280;10510;47.942;9.442;2023-02-19T10:58:28;95399.31;;;10.21;100.00
11487;BME280;10510;47.942;9.442;2023-02-19T11:00:33;95405.00;;;10.17;100.00
11487;BME280;10510;47.942;9.442;2023-02-19T11:02:33;95395.06;;;10.20;100.00
11487;BME280;10510;47.942;9.442;2023-02-19T11:04:33;95390.03;;;10.27;100.00
11487;BME280;10510;47.942;9.442;2023-02-19T11:06:37;95388.59;;;10.33;100.00
11487;BME280;10510;47.942;9.442;2023-02-19T11:10:47;95387.59;;;10.42;100.00
11487;BME280;10510;47.942;9.442;2023-02-19T11:12:49;95383.50;;;10.39;100.00
11487;BME280;10510;47.942;9.442;2023-02-19T11:14:50;95385.94;;;10.41;100.00